createdAt,value
2023-03-01T00:00:23.632Z,74.99
2023-03-01T00:02:53.309Z,80.85
2023-03-01T00:05:23.817Z,79.12
2023-03-01T00:07:55.807Z,79.20
2023-03-01T00:10:25.901Z,78.83
2023-03-01T00:12:56.477Z,80.38
2023-03-01T00:15:26.015Z,77.73
2023-03-01T00:17:55.908Z,77.24
2023-03-01T00:20:25.387Z,81.55
2023-03-01T00:22:54.740Z,80.17
2023-03-01T00:25:24.459Z,79.09
2023-03-01T00:27:54.012Z,77.17
2023-03-01T00:30:23.481Z,78.83
2023-03-01T00:32:53.437Z,80.97
2023-03-01T00:35:24.847Z,82.94
2023-03-01T00:37:59.377Z,78.89
2023-03-01T00:40:30.945Z,83.16
2023-03-01T00:43:01.849Z,78.69
2023-03-01T00:45:32.773Z,82.95
2023-03-01T00:48:02.808Z,81.59
2023-03-01T00:50:32.285Z,83.65
2023-03-01T00:53:01.934Z,83.20
2023-03-01T00:55:31.708Z,81.42
2023-03-01T00:58:00.855Z,79.07
2023-03-01T01:00:31.223Z,79.09
2023-03-01T01:03:01.142Z,81.72
2023-03-01T01:05:30.584Z,79.26
2023-03-01T01:07:59.892Z,80.14
2023-03-01T01:10:30.262Z,81.12
2023-03-01T01:13:00.080Z,82.47
2023-03-01T01:15:30.339Z,86.19
2023-03-01T01:17:59.402Z,82.14
2023-03-01T01:20:29.140Z,87.07
2023-03-01T01:22:59.898Z,86.33
2023-03-01T01:25:29.274Z,84.41
2023-03-01T01:27:59.054Z,84.41
2023-03-01T01:30:28.370Z,84.53
2023-03-01T01:32:58.623Z,85.05
2023-03-01T01:35:28.966Z,82.68
2023-03-01T01:37:58.915Z,82.83
2023-03-01T01:40:28.182Z,81.32
2023-03-01T01:42:57.395Z,84.28
2023-03-01T01:45:33.979Z,86.95
2023-03-01T01:48:12.560Z,86.55
2023-03-01T01:50:43.307Z,83.96
2023-03-01T01:53:15.976Z,81.76
2023-03-01T01:55:50.486Z,86.58
2023-03-01T01:58:22.594Z,86.46
2023-03-01T02:00:52.622Z,88.59
2023-03-01T02:03:31.035Z,86.28
2023-03-01T02:06:12.976Z,84.29
2023-03-01T02:08:45.996Z,85.31
2023-03-01T02:11:17.136Z,85.63
2023-03-01T02:13:50.202Z,87.45
2023-03-01T02:16:21.395Z,83.29
2023-03-01T02:18:52.494Z,83.55
2023-03-01T02:21:26.429Z,83.82
2023-03-01T02:23:57.292Z,85.68
2023-03-01T02:26:47.580Z,86.30
2023-03-01T02:29:16.900Z,82.10
2023-03-01T02:31:48.807Z,87.95
2023-03-01T02:34:22.172Z,84.19
2023-03-01T02:37:14.156Z,84.70
2023-03-01T02:39:50.822Z,85.07
2023-03-01T02:42:28.019Z,85.72
2023-03-01T02:44:57.658Z,88.65
2023-03-01T02:47:27.457Z,88.08
2023-03-01T02:49:57.946Z,87.70
2023-03-01T02:52:35.513Z,90.68
2023-03-01T02:55:12.750Z,83.99
2023-03-01T02:57:46.200Z,87.04
2023-03-01T03:00:21.314Z,83.64
2023-03-01T03:02:52.939Z,82.86
2023-03-01T03:05:28.052Z,86.22
2023-03-01T03:07:58.983Z,88.15
2023-03-01T03:10:36.039Z,87.67
2023-03-01T03:13:09.985Z,80.18
2023-03-01T03:15:40.710Z,87.15
2023-03-01T03:18:14.367Z,89.24
2023-03-01T03:20:45.148Z,86.73
2023-03-01T03:23:15.305Z,89.34
2023-03-01T03:25:44.495Z,88.70
2023-03-01T03:28:13.824Z,86.58
2023-03-01T03:30:44.452Z,87.74
2023-03-01T03:33:14.487Z,84.28
2023-03-01T03:35:46.709Z,88.52
2023-03-01T03:38:18.579Z,85.38
2023-03-01T03:40:52.453Z,86.85
2023-03-01T03:43:24.977Z,84.24
2023-03-01T03:45:55.694Z,86.65
2023-03-01T03:48:26.122Z,85.55
2023-03-01T03:50:58.138Z,86.23
2023-03-01T03:53:29.251Z,85.08
2023-03-01T03:55:58.793Z,87.32
2023-03-01T03:58:28.763Z,84.16
2023-03-01T04:00:59.442Z,84.73
2023-03-01T04:03:30.648Z,82.81
2023-03-01T04:06:01.736Z,80.82
2023-03-01T04:08:31.457Z,85.36
2023-03-01T04:11:22.520Z,85.62
2023-03-01T04:13:54.266Z,90.26
2023-03-01T04:16:24.087Z,90.18
2023-03-01T04:18:55.447Z,91.45
2023-03-01T04:21:28.072Z,86.19
2023-03-01T04:24:00.101Z,87.16
2023-03-01T04:26:29.777Z,90.57
2023-03-01T04:28:59.790Z,89.47
2023-03-01T04:31:29.156Z,88.32
2023-03-01T04:33:58.811Z,89.24
2023-03-01T04:36:31.979Z,88.07
2023-03-01T04:39:13.822Z,92.04
2023-03-01T04:41:45.963Z,91.96
2023-03-01T04:44:14.974Z,85.02
2023-03-01T04:46:45.574Z,88.82
2023-03-01T04:49:15.307Z,91.93
2023-03-01T04:51:44.918Z,89.02
2023-03-01T04:54:14.133Z,89.82
2023-03-01T04:56:43.580Z,91.64
2023-03-01T05:02:03.490Z,88.25
2023-03-01T05:04:33.381Z,86.33
2023-03-01T05:07:02.941Z,87.11
2023-03-01T05:09:33.406Z,85.06
2023-03-01T05:12:02.710Z,89.45
2023-03-01T05:14:32.717Z,87.46
2023-03-01T05:17:05.637Z,87.99
2023-03-01T05:19:36.002Z,82.90
2023-03-01T05:22:06.671Z,84.42
2023-03-01T05:24:37.687Z,87.42
2023-03-01T05:27:08.160Z,86.22
2023-03-01T05:29:37.912Z,81.82
2023-03-01T05:32:10.621Z,84.73
2023-03-01T05:34:50.907Z,84.87
2023-03-01T05:37:23.017Z,81.62
2023-03-01T05:39:53.453Z,77.47
2023-03-01T05:42:22.862Z,76.26
2023-03-01T05:44:52.848Z,78.33
2023-03-01T05:47:22.718Z,76.47
2023-03-01T05:49:52.780Z,78.67
2023-03-01T05:52:22.075Z,75.20
2023-03-01T05:54:51.403Z,74.49
2023-03-01T05:57:21.986Z,73.79
2023-03-01T05:59:51.294Z,78.36
2023-03-01T06:02:21.604Z,74.23
2023-03-01T06:04:51.080Z,75.01
2023-03-01T06:07:20.637Z,74.52
2023-03-01T06:09:49.869Z,72.87
2023-03-01T06:12:20.160Z,77.40
2023-03-01T06:14:50.983Z,78.10
2023-03-01T06:17:20.593Z,74.31
2023-03-01T06:19:49.713Z,75.65
2023-03-01T06:22:18.871Z,74.36
2023-03-01T06:24:48.968Z,70.25
2023-03-01T06:27:18.766Z,72.05
2023-03-01T06:29:48.604Z,70.78
2023-03-01T06:32:18.335Z,73.45
2023-03-01T06:34:47.589Z,71.52
2023-03-01T06:37:17.707Z,72.75
2023-03-01T06:39:47.230Z,69.34
2023-03-01T06:42:16.976Z,67.67
2023-03-01T06:44:47.411Z,67.23
2023-03-01T06:47:17.300Z,67.26
2023-03-01T06:49:46.574Z,65.79
2023-03-01T06:52:16.906Z,62.65
2023-03-01T06:54:46.916Z,62.81
2023-03-01T06:57:16.299Z,62.34
2023-03-01T06:59:48.758Z,63.72
2023-03-01T07:02:20.322Z,61.82
2023-03-01T07:04:52.278Z,61.42
2023-03-01T07:07:21.983Z,61.18
2023-03-01T07:09:52.221Z,61.94
2023-03-01T07:12:22.465Z,61.89
2023-03-01T07:14:52.364Z,62.26
2023-03-01T07:17:22.180Z,61.49
2023-03-01T07:19:51.386Z,61.39
2023-03-01T07:22:20.721Z,64.61
2023-03-01T07:24:50.505Z,60.73
2023-03-01T07:27:20.070Z,60.33
2023-03-01T07:29:50.608Z,60.04
2023-03-01T07:32:20.460Z,59.68
2023-03-01T07:34:52.448Z,59.63
2023-03-01T07:37:22.189Z,59.26
2023-03-01T07:39:51.329Z,58.30
2023-03-01T07:42:20.783Z,59.17
2023-03-01T07:44:50.625Z,57.86
2023-03-01T07:47:20.181Z,57.12
2023-03-01T07:49:49.511Z,57.35
2023-03-01T07:52:19.247Z,58.01
2023-03-01T07:54:48.643Z,58.04
2023-03-01T07:57:18.173Z,57.82
2023-03-01T07:59:47.809Z,56.90
2023-03-01T08:02:17.086Z,57.87
2023-03-01T08:04:46.589Z,58.28
2023-03-01T08:07:15.822Z,58.37
2023-03-01T08:09:45.305Z,60.94
2023-03-01T08:12:17.982Z,58.99
2023-03-01T08:14:47.471Z,59.19
2023-03-01T08:17:19.943Z,58.42
2023-03-01T08:19:49.738Z,58.48
2023-03-01T08:22:19.430Z,57.83
2023-03-01T08:24:49.487Z,58.10
2023-03-01T08:27:19.450Z,58.47
2023-03-01T08:29:49.330Z,58.41
2023-03-01T08:32:18.599Z,57.70
2023-03-01T08:34:49.416Z,56.61
2023-03-01T08:37:19.373Z,58.23
2023-03-01T08:39:49.090Z,59.00
2023-03-01T08:42:18.999Z,58.84
2023-03-01T08:44:48.408Z,59.08
2023-03-01T08:47:17.881Z,61.70
2023-03-01T08:49:47.664Z,64.18
2023-03-01T08:52:17.006Z,64.09
2023-03-01T08:54:47.529Z,61.09
2023-03-01T08:57:17.751Z,64.42
2023-03-01T08:59:47.058Z,61.69
2023-03-01T09:02:19.283Z,62.38
2023-03-01T09:04:49.144Z,61.92
2023-03-01T09:07:19.011Z,61.51
2023-03-01T09:09:48.754Z,60.17
2023-03-01T09:12:18.808Z,60.58
2023-03-01T09:14:48.606Z,59.23
2023-03-01T09:17:19.037Z,58.50
2023-03-01T09:19:48.131Z,59.53
2023-03-01T09:22:17.449Z,59.14
2023-03-01T09:24:49.997Z,61.59
2023-03-01T09:27:21.452Z,59.78
2023-03-01T09:29:52.072Z,59.25
2023-03-01T09:32:21.446Z,59.05
2023-03-01T09:35:06.528Z,60.10
2023-03-01T09:37:37.548Z,60.50
2023-03-01T09:40:11.119Z,59.83
2023-03-01T09:42:54.945Z,56.83
2023-03-01T09:45:43.526Z,57.54
2023-03-01T09:48:25.292Z,59.40
2023-03-01T09:50:56.041Z,56.62
2023-03-01T09:53:34.345Z,58.67
2023-03-01T09:56:24.149Z,55.94
2023-03-01T09:58:58.889Z,59.46
2023-03-01T10:01:49.324Z,55.95
2023-03-01T10:04:56.250Z,55.80
2023-03-01T10:07:28.185Z,56.44
2023-03-01T10:10:03.078Z,55.09
2023-03-01T10:12:38.089Z,54.84
2023-03-01T10:15:31.426Z,53.22
2023-03-01T10:18:09.588Z,53.97
2023-03-01T10:20:55.174Z,52.09
2023-03-01T10:23:27.343Z,52.92
2023-03-01T10:26:20.259Z,52.58
2023-03-01T10:29:10.345Z,53.42
2023-03-01T10:31:56.100Z,51.96
2023-03-01T10:34:32.826Z,51.57
2023-03-01T10:37:12.325Z,52.74
2023-03-01T10:39:58.277Z,52.10
2023-03-01T10:42:33.143Z,50.81
2023-03-01T10:45:28.885Z,48.53
2023-03-01T10:48:18.784Z,49.02
2023-03-01T10:50:52.788Z,50.94
2023-03-01T10:53:28.350Z,50.23
2023-03-01T10:56:00.559Z,49.61
2023-03-01T10:58:31.831Z,48.32
2023-03-01T11:01:06.034Z,49.32
2023-03-01T11:03:39.636Z,50.53
2023-03-01T11:06:24.310Z,52.22
2023-03-01T11:08:55.654Z,51.20
2023-03-01T11:11:36.836Z,52.46
2023-03-01T11:14:26.295Z,52.35
2023-03-01T11:17:19.048Z,53.79
2023-03-01T11:20:18.024Z,54.27
2023-03-01T11:22:56.509Z,55.51
2023-03-01T11:25:31.507Z,57.64
2023-03-01T11:28:03.934Z,55.78
2023-03-01T11:30:40.914Z,54.81
2023-03-01T11:33:16.138Z,54.30
2023-03-01T11:35:57.040Z,53.65
2023-03-01T11:38:29.661Z,53.11
2023-03-01T11:41:09.472Z,53.79
2023-03-01T11:44:00.723Z,52.80
2023-03-01T11:46:44.883Z,57.52
2023-03-01T11:49:44.006Z,53.60
2023-03-01T11:52:51.317Z,52.12
2023-03-01T11:55:51.482Z,51.56
2023-03-01T11:58:44.744Z,52.98
2023-03-01T12:01:22.223Z,54.43
2023-03-01T12:04:08.823Z,54.43
2023-03-01T12:06:57.745Z,53.90
2023-03-01T12:09:41.134Z,53.06
2023-03-01T12:12:40.430Z,52.21
2023-03-01T12:15:41.942Z,51.12
2023-03-01T12:18:50.781Z,49.76
2023-03-01T12:21:26.569Z,48.09
2023-03-01T12:24:21.572Z,50.43
2023-03-01T12:27:09.758Z,50.02
2023-03-01T12:30:07.926Z,51.92
2023-03-01T12:32:45.076Z,50.94
2023-03-01T12:35:42.817Z,52.13
2023-03-01T12:38:27.764Z,50.86
2023-03-01T12:41:18.757Z,50.25
2023-03-01T12:44:09.343Z,48.44
2023-03-01T12:47:02.724Z,48.03
2023-03-01T12:49:43.248Z,48.30
2023-03-01T12:52:17.533Z,48.20
2023-03-01T12:54:49.245Z,47.37
2023-03-01T12:57:38.846Z,48.14
2023-03-01T13:00:24.102Z,46.92
2023-03-01T13:03:18.027Z,44.92
2023-03-01T13:06:14.610Z,47.46
2023-03-01T13:08:47.688Z,47.92
2023-03-01T13:11:24.656Z,48.62
2023-03-01T13:13:56.424Z,48.50
2023-03-01T13:16:46.588Z,49.22
2023-03-01T13:19:19.312Z,52.39
2023-03-01T13:21:51.186Z,53.59
2023-03-01T13:24:42.097Z,53.14
2023-03-01T13:27:24.442Z,56.00
2023-03-01T13:29:57.252Z,54.60
2023-03-01T13:32:43.197Z,50.69
2023-03-01T13:35:44.132Z,48.56
2023-03-01T13:38:47.833Z,50.04
2023-03-01T13:41:38.411Z,47.78
2023-03-01T13:44:37.545Z,46.02
2023-03-01T13:47:19.360Z,45.92
2023-03-01T13:50:01.434Z,48.64
2023-03-01T13:52:35.357Z,52.23
2023-03-01T13:55:19.156Z,54.35
2023-03-01T13:57:55.448Z,55.72
2023-03-01T14:00:44.347Z,57.18
2023-03-01T14:03:20.920Z,57.48
2023-03-01T14:06:17.311Z,57.68
2023-03-01T14:08:51.913Z,58.60
2023-03-01T14:11:52.505Z,57.91
2023-03-01T14:14:25.746Z,57.06
2023-03-01T14:17:03.267Z,57.13
2023-03-01T14:19:34.860Z,58.24
2023-03-01T14:22:24.945Z,58.44
2023-03-01T14:25:01.045Z,58.80
2023-03-01T14:27:43.677Z,58.60
2023-03-01T14:30:24.359Z,59.12
2023-03-01T14:33:07.310Z,59.46
2023-03-01T14:35:38.736Z,63.90
2023-03-01T14:38:08.542Z,60.21
2023-03-01T14:40:40.063Z,59.29
2023-03-01T14:43:17.667Z,59.63
2023-03-01T14:45:53.011Z,59.58
2023-03-01T14:48:23.629Z,60.20
2023-03-01T14:50:55.872Z,59.46
2023-03-01T14:53:40.139Z,60.12
2023-03-01T14:56:20.787Z,63.09
2023-03-01T14:59:00.866Z,60.69
2023-03-01T15:01:32.204Z,61.35
2023-03-01T15:04:03.592Z,61.38
2023-03-01T15:06:34.492Z,61.47
2023-03-01T15:09:05.332Z,63.38
2023-03-01T15:11:37.701Z,64.02
2023-03-01T15:14:47.468Z,62.88
2023-03-01T15:17:41.228Z,62.44
2023-03-01T15:20:20.078Z,63.22
2023-03-01T15:22:51.199Z,64.34
2023-03-01T15:25:24.203Z,63.79
2023-03-01T15:27:56.377Z,63.22
2023-03-01T15:30:41.176Z,62.63
2023-03-01T15:33:30.968Z,63.08
2023-03-01T15:36:03.653Z,62.72
2023-03-01T15:38:56.127Z,63.67
2023-03-01T15:41:32.648Z,63.45
2023-03-01T15:44:18.214Z,63.49
2023-03-01T15:46:50.307Z,63.44
2023-03-01T15:49:54.347Z,64.16
2023-03-01T15:52:45.276Z,63.50
2023-03-01T15:55:22.322Z,62.71
2023-03-01T15:58:02.131Z,62.66
2023-03-01T16:00:32.931Z,62.70
2023-03-01T16:03:03.273Z,63.87
2023-03-01T16:05:36.581Z,63.39
2023-03-01T16:08:08.764Z,63.09
2023-03-01T16:10:39.293Z,63.40
2023-03-01T16:13:10.808Z,65.19
2023-03-01T16:15:41.421Z,64.32
2023-03-01T16:18:15.858Z,63.91
2023-03-01T16:20:46.180Z,63.79
2023-03-01T16:23:18.728Z,63.33
2023-03-01T16:25:48.873Z,63.54
2023-03-01T16:28:19.325Z,63.71
2023-03-01T16:30:50.841Z,64.52
2023-03-01T16:33:27.183Z,64.50
2023-03-01T16:36:10.609Z,65.27
2023-03-01T16:38:41.643Z,68.32
2023-03-01T16:41:15.977Z,66.66
2023-03-01T16:43:48.475Z,66.74
2023-03-01T16:46:20.742Z,68.18
2023-03-01T16:48:52.660Z,68.98
2023-03-01T16:51:23.362Z,67.97
2023-03-01T16:53:54.250Z,67.61
2023-03-01T16:56:24.466Z,67.72
2023-03-01T16:58:55.659Z,68.09
2023-03-01T17:01:30.392Z,69.77
2023-03-01T17:04:02.754Z,68.86
2023-03-01T17:06:34.408Z,70.84
2023-03-01T17:09:06.826Z,68.68
2023-03-01T17:11:38.398Z,68.64
2023-03-01T17:14:10.251Z,69.93
2023-03-01T17:16:41.370Z,68.32
2023-03-01T17:19:12.412Z,68.68
2023-03-01T17:21:42.594Z,68.67
2023-03-01T17:24:17.688Z,68.45
2023-03-01T17:26:48.177Z,68.90
2023-03-01T17:29:20.059Z,69.35
2023-03-01T17:31:50.593Z,69.35
2023-03-01T17:34:21.687Z,70.03
2023-03-01T17:36:53.211Z,69.86
2023-03-01T17:39:26.588Z,70.37
2023-03-01T17:41:58.684Z,70.15
2023-03-01T17:44:30.538Z,70.90
2023-03-01T17:47:07.069Z,70.50
2023-03-01T17:49:39.211Z,71.09
2023-03-01T17:52:09.580Z,70.65
2023-03-01T17:54:41.089Z,71.18
2023-03-01T17:57:11.166Z,71.06
2023-03-01T17:59:41.731Z,71.84
2023-03-01T18:02:14.228Z,72.53
2023-03-01T18:04:45.002Z,72.56
2023-03-01T18:07:15.400Z,73.09
2023-03-01T18:09:45.993Z,73.31
2023-03-01T18:12:15.849Z,74.64
2023-03-01T18:14:46.539Z,73.76
2023-03-01T18:17:16.089Z,74.29
2023-03-01T18:19:46.522Z,74.93
2023-03-01T18:22:16.763Z,74.66
2023-03-01T18:24:47.537Z,75.34
2023-03-01T18:27:17.274Z,75.83
2023-03-01T18:29:47.486Z,74.79
2023-03-01T18:32:17.007Z,74.87
2023-03-01T18:34:46.878Z,75.74
2023-03-01T18:37:16.927Z,75.54
2023-03-01T18:39:46.855Z,75.75
2023-03-01T18:42:17.647Z,75.75
2023-03-01T18:44:49.807Z,75.37
2023-03-01T18:47:20.937Z,75.49
2023-03-01T18:49:50.605Z,75.72
2023-03-01T18:52:20.140Z,75.19
2023-03-01T18:54:49.988Z,75.06
2023-03-01T18:57:19.770Z,74.83
2023-03-01T18:59:50.184Z,74.92
2023-03-01T19:02:20.003Z,75.64
2023-03-01T19:04:52.159Z,75.49
2023-03-01T19:07:24.649Z,76.24
2023-03-01T19:09:54.172Z,75.28
2023-03-01T19:12:24.043Z,75.46
2023-03-01T19:14:56.591Z,76.05
2023-03-01T19:17:31.231Z,76.36
2023-03-01T19:20:01.176Z,77.19
2023-03-01T19:22:32.400Z,76.93
2023-03-01T19:25:03.072Z,77.69
2023-03-01T19:27:33.091Z,78.42
2023-03-01T19:30:02.900Z,78.18
2023-03-01T19:32:35.413Z,79.79
2023-03-01T19:35:05.579Z,79.07
2023-03-01T19:37:36.937Z,78.46
2023-03-01T19:40:07.290Z,78.32
2023-03-01T19:42:38.041Z,78.91
2023-03-01T19:45:08.639Z,78.67
2023-03-01T19:47:38.674Z,78.77
2023-03-01T19:50:08.566Z,78.51
2023-03-01T19:52:38.818Z,78.60
2023-03-01T19:55:10.114Z,79.11
2023-03-01T19:57:41.288Z,78.52
2023-03-01T20:00:11.534Z,79.22
2023-03-01T20:02:50.310Z,79.06
2023-03-01T20:05:21.324Z,79.83
2023-03-01T20:08:02.866Z,79.01
2023-03-01T20:10:34.894Z,79.56
2023-03-01T20:13:04.551Z,79.89
2023-03-01T20:15:35.520Z,81.20
2023-03-01T20:18:05.190Z,79.67
2023-03-01T20:20:34.701Z,79.97
2023-03-01T20:23:04.339Z,80.57
2023-03-01T20:25:34.366Z,79.34
2023-03-01T20:28:04.305Z,79.83
2023-03-01T20:30:33.739Z,79.96
2023-03-01T20:33:03.927Z,79.69
2023-03-01T20:35:36.546Z,80.20
2023-03-01T20:38:07.454Z,79.68
2023-03-01T20:40:38.223Z,80.06
2023-03-01T20:43:10.171Z,79.80
2023-03-01T20:45:41.261Z,79.78
2023-03-01T20:48:11.260Z,79.69
2023-03-01T20:50:42.362Z,79.88
2023-03-01T20:53:13.217Z,79.76
2023-03-01T20:55:42.587Z,79.64
2023-03-01T20:58:12.641Z,80.56
2023-03-01T21:00:42.300Z,79.31
2023-03-01T21:03:12.119Z,79.40
2023-03-01T21:05:41.229Z,79.61
2023-03-01T21:08:11.165Z,79.35
2023-03-01T21:10:41.122Z,79.61
2023-03-01T21:13:11.143Z,79.27
2023-03-01T21:15:40.393Z,79.00
2023-03-01T21:18:10.153Z,78.91
2023-03-01T21:20:43.576Z,79.49
2023-03-01T21:23:13.722Z,79.25
2023-03-01T21:25:43.170Z,78.89
2023-03-01T21:28:12.901Z,79.21
2023-03-01T21:30:42.029Z,79.18
2023-03-01T21:33:11.617Z,78.82
2023-03-01T21:35:41.225Z,79.41
2023-03-01T21:38:10.747Z,79.52
2023-03-01T21:40:40.718Z,79.50
2023-03-01T21:43:10.154Z,79.52
2023-03-01T21:45:40.854Z,79.80
2023-03-01T21:48:10.631Z,80.43
2023-03-01T21:50:41.708Z,80.46
2023-03-01T21:53:11.551Z,80.87
2023-03-01T21:55:48.518Z,81.10
2023-03-01T21:58:19.714Z,80.90
2023-03-01T22:00:50.058Z,82.71
2023-03-01T22:03:20.278Z,82.09
2023-03-01T22:05:58.939Z,83.14
2023-03-01T22:08:30.908Z,83.55
2023-03-01T22:11:06.581Z,82.39
2023-03-01T22:13:37.508Z,83.70
2023-03-01T22:16:07.440Z,84.08
2023-03-01T22:18:37.064Z,83.79
2023-03-01T22:21:08.097Z,83.33
2023-03-01T22:23:39.699Z,84.42
2023-03-01T22:26:21.190Z,83.34
2023-03-01T22:28:51.407Z,83.37
2023-03-01T22:31:20.805Z,83.45
2023-03-01T22:33:51.160Z,83.00
2023-03-01T22:36:21.568Z,82.68
2023-03-01T22:38:59.445Z,83.48
2023-03-01T22:41:31.231Z,82.61
2023-03-01T22:44:01.226Z,82.76
2023-03-01T22:46:31.141Z,82.58
2023-03-01T22:49:02.395Z,83.28
2023-03-01T22:51:34.104Z,83.79
2023-03-01T22:54:03.988Z,83.86
2023-03-01T22:56:35.520Z,83.69
2023-03-01T22:59:11.450Z,83.69
2023-03-01T23:01:47.324Z,84.32
2023-03-01T23:04:19.292Z,85.13
2023-03-01T23:06:54.461Z,86.32
2023-03-01T23:09:33.905Z,86.56
2023-03-01T23:12:07.148Z,86.21
2023-03-01T23:14:38.995Z,87.10
2023-03-01T23:17:09.110Z,87.81
2023-03-01T23:19:38.906Z,88.29
2023-03-01T23:22:08.614Z,87.51
2023-03-01T23:24:39.766Z,86.89
2023-03-01T23:27:09.852Z,88.43
2023-03-01T23:29:41.128Z,90.24
2023-03-01T23:32:11.224Z,91.10
2023-03-01T23:34:44.704Z,92.13
2023-03-01T23:37:13.499Z,91.83
2023-03-01T23:39:43.625Z,91.77
2023-03-01T23:42:13.966Z,91.74
2023-03-01T23:44:44.237Z,91.86
2023-03-01T23:47:13.451Z,91.34
2023-03-01T23:49:44.075Z,90.68
2023-03-01T23:52:17.991Z,91.01
2023-03-01T23:54:47.977Z,90.96
2023-03-01T23:57:17.107Z,89.76
2023-03-01T23:59:46.505Z,89.89
